Time;durP1;ratioP1;P1;durP2;ratioP2;P2;SDS_P1;SDS_P2;PMS_P1;PMS_P2;Temp;Humidity;BMP_temperature;BMP_pressure;BME280_temperature;BME280_humidity;BME280_pressure;Samples;Min_cycle;Max_cycle;Signal;HPM_P1;HPM_P2
2021/09/16 00:00:22;;;;;;;3.33;0.90;;;22.60;99.90;;;;;;5093014;28;20072;-65
2021/09/16 00:02:47;;;;;;;2.22;0.70;;;22.50;99.90;;;;;;5094843;28;20478;-66
2021/09/16 00:05:13;;;;;;;2.13;0.73;;;22.50;99.90;;;;;;5112217;28;20038;-66
2021/09/16 00:07:39;;;;;;;1.83;0.80;;;22.50;99.90;;;;;;5111632;28;20073;-66
2021/09/16 00:10:06;;;;;;;1.38;0.60;;;22.50;99.90;;;;;;5108863;28;20032;-66
2021/09/16 00:12:32;;;;;;;1.40;0.60;;;22.60;99.90;;;;;;5092218;28;20103;-66
2021/09/16 00:14:58;;;;;;;2.22;0.80;;;22.60;99.90;;;;;;5091801;28;20083;-66
2021/09/16 00:17:23;;;;;;;1.42;0.63;;;22.50;99.90;;;;;;5091724;28;20024;-66
2021/09/16 00:19:49;;;;;;;2.53;0.70;;;22.60;99.90;;;;;;5091347;28;20120;-66
2021/09/16 00:22:15;;;;;;;1.83;0.82;;;22.60;99.90;;;;;;5096220;28;20028;-67
2021/09/16 00:24:40;;;;;;;2.33;0.70;;;22.50;99.90;;;;;;5094892;28;20028;-68
2021/09/16 00:27:06;;;;;;;2.25;0.73;;;22.50;99.90;;;;;;5091722;28;20027;-66
2021/09/16 00:29:32;;;;;;;2.15;0.70;;;22.50;99.90;;;;;;5091966;28;20028;-66
2021/09/16 00:32:00;;;;;;;3.00;0.60;;;22.50;99.90;;;;;;5101099;28;20065;-66
2021/09/16 00:34:26;;;;;;;2.80;0.95;;;22.50;99.90;;;;;;5111933;28;20537;-66
2021/09/16 00:36:52;;;;;;;1.50;0.70;;;22.50;99.90;;;;;;5111319;28;20058;-66
2021/09/16 00:39:18;;;;;;;6.30;0.88;;;22.50;99.90;;;;;;5111808;28;20027;-66
2021/09/16 00:41:44;;;;;;;1.52;0.80;;;22.50;99.90;;;;;;5102322;28;20486;-66
2021/09/16 00:44:09;;;;;;;1.67;0.73;;;22.50;99.90;;;;;;5095739;28;20044;-66
2021/09/16 00:46:35;;;;;;;2.38;0.60;;;22.50;99.90;;;;;;5096398;28;20023;-66
2021/09/16 00:49:03;;;;;;;1.23;0.60;;;22.50;99.90;;;;;;5096270;28;20031;-66
2021/09/16 00:51:30;;;;;;;1.58;0.70;;;22.50;99.90;;;;;;5095579;28;20582;-66
2021/09/16 00:53:58;;;;;;;3.22;0.80;;;22.50;99.90;;;;;;5109374;28;20111;-66
2021/09/16 00:56:25;;;;;;;1.55;0.50;;;22.50;99.90;;;;;;5096407;28;20016;-67
2021/09/16 00:58:53;;;;;;;0.90;0.60;;;22.50;99.90;;;;;;5095009;28;20387;-66
2021/09/16 01:01:19;;;;;;;2.05;0.70;;;22.50;99.90;;;;;;5095766;28;20055;-67
2021/09/16 01:03:45;;;;;;;1.02;0.70;;;22.40;99.90;;;;;;5095193;28;20099;-66
2021/09/16 01:06:11;;;;;;;1.00;0.70;;;22.50;99.90;;;;;;5095324;28;20091;-66
2021/09/16 01:08:39;;;;;;;3.33;0.80;;;22.40;99.90;;;;;;5095073;28;20372;-66
2021/09/16 01:11:05;;;;;;;1.15;0.73;;;22.40;99.90;;;;;;5095201;28;20451;-66
2021/09/16 01:13:31;;;;;;;2.38;0.88;;;22.50;99.90;;;;;;5101812;28;20077;-66
2021/09/16 01:15:58;;;;;;;2.00;0.80;;;22.40;99.90;;;;;;5109076;28;20107;-66
2021/09/16 01:18:24;;;;;;;3.30;0.68;;;22.40;99.90;;;;;;5112856;28;20048;-66
2021/09/16 01:20:50;;;;;;;1.85;0.70;;;22.40;99.90;;;;;;5095493;28;20064;-66
2021/09/16 01:23:16;;;;;;;2.22;0.70;;;22.40;99.90;;;;;;5100882;28;20063;-66
2021/09/16 01:25:42;;;;;;;1.52;0.80;;;22.40;99.90;;;;;;5115221;28;20115;-67
2021/09/16 01:28:08;;;;;;;1.27;0.68;;;22.40;99.90;;;;;;5114728;28;20105;-66
2021/09/16 01:30:34;;;;;;;1.90;0.70;;;22.40;99.90;;;;;;5115074;28;20028;-66
2021/09/16 01:32:59;;;;;;;2.50;0.55;;;22.40;99.90;;;;;;5115494;28;20027;-67
2021/09/16 01:35:26;;;;;;;1.80;0.68;;;22.40;99.90;;;;;;5114830;28;20088;-66
2021/09/16 01:37:52;;;;;;;1.67;0.50;;;22.40;99.90;;;;;;5110631;28;20028;-65
2021/09/16 01:40:18;;;;;;;0.93;0.68;;;22.40;99.90;;;;;;5106143;28;20036;-66
2021/09/16 01:42:45;;;;;;;1.30;0.80;;;22.40;99.90;;;;;;5094256;28;20024;-66
2021/09/16 01:45:14;;;;;;;2.55;0.80;;;22.40;99.90;;;;;;5094486;28;20107;-67
2021/09/16 01:47:41;;;;;;;1.58;0.70;;;22.40;99.90;;;;;;5094370;28;20031;-66
2021/09/16 01:50:07;;;;;;;1.00;0.63;;;22.40;99.90;;;;;;5098299;28;20110;-67
2021/09/16 01:52:33;;;;;;;1.20;0.80;;;22.40;99.90;;;;;;5108095;28;20059;-66
2021/09/16 01:54:59;;;;;;;3.28;0.63;;;22.30;99.90;;;;;;5105965;28;20496;-67
2021/09/16 01:57:24;;;;;;;1.30;0.77;;;22.40;99.90;;;;;;5094287;28;20419;-67
2021/09/16 01:59:50;;;;;;;1.40;0.77;;;22.30;99.90;;;;;;5093870;28;20036;-66
2021/09/16 02:02:15;;;;;;;1.00;0.70;;;22.30;99.90;;;;;;5094127;28;20064;-67
2021/09/16 02:04:41;;;;;;;1.88;0.80;;;22.30;99.90;;;;;;5093947;28;20464;-67
2021/09/16 02:07:07;;;;;;;1.02;0.65;;;22.30;99.90;;;;;;5094137;28;20031;-67
2021/09/16 02:09:32;;;;;;;1.58;0.90;;;22.30;99.90;;;;;;5094363;28;20016;-66
2021/09/16 02:11:58;;;;;;;2.15;0.98;;;22.30;99.90;;;;;;5094212;28;20093;-67
2021/09/16 02:14:23;;;;;;;1.40;1.00;;;22.30;99.90;;;;;;5111663;28;20032;-66
2021/09/16 02:16:49;;;;;;;2.35;0.90;;;22.30;99.90;;;;;;5109423;28;20492;-67
2021/09/16 02:19:15;;;;;;;2.03;0.85;;;22.30;99.90;;;;;;5114269;28;20490;-67
2021/09/16 02:21:41;;;;;;;1.20;0.70;;;22.30;99.90;;;;;;5113529;28;20035;-66
2021/09/16 02:24:06;;;;;;;1.45;0.80;;;22.30;99.90;;;;;;5102775;28;20056;-68
2021/09/16 02:26:32;;;;;;;2.25;1.15;;;22.30;99.90;;;;;;5090164;28;20039;-67
2021/09/16 02:28:57;;;;;;;1.63;1.00;;;22.30;99.90;;;;;;5093724;28;20113;-67
2021/09/16 02:31:23;;;;;;;2.50;1.30;;;22.30;99.90;;;;;;5093684;28;20036;-67
2021/09/16 02:33:49;;;;;;;1.83;1.27;;;22.30;99.90;;;;;;5093346;28;20020;-68
2021/09/16 02:36:14;;;;;;;4.13;1.00;;;22.30;99.90;;;;;;5096206;28;20104;-67
2021/09/16 02:38:40;;;;;;;1.50;1.20;;;22.30;99.90;;;;;;5112995;28;20031;-66
2021/09/16 02:41:06;;;;;;;1.33;1.02;;;22.30;99.90;;;;;;5111902;28;20031;-67
2021/09/16 02:43:32;;;;;;;1.67;1.20;;;22.30;99.90;;;;;;5093880;28;20020;-67
2021/09/16 02:45:57;;;;;;;2.50;1.30;;;22.30;99.90;;;;;;5108565;28;20096;-67
2021/09/16 02:48:23;;;;;;;4.32;1.20;;;22.30;99.90;;;;;;5114017;28;20102;-66
2021/09/16 02:50:49;;;;;;;2.15;1.25;;;22.20;99.90;;;;;;5112906;28;20064;-67
2021/09/16 02:53:14;;;;;;;2.50;1.13;;;22.20;99.90;;;;;;5109955;28;20019;-67
2021/09/16 02:55:40;;;;;;;1.67;0.90;;;22.20;99.90;;;;;;5092797;28;20040;-67
2021/09/16 02:58:06;;;;;;;1.83;0.70;;;22.20;99.90;;;;;;5093434;28;20020;-67
2021/09/16 03:00:31;;;;;;;1.30;0.95;;;22.30;99.90;;;;;;5093346;28;20084;-67
2021/09/16 03:02:57;;;;;;;2.00;1.00;;;22.20;99.90;;;;;;5092679;28;20073;-66
2021/09/16 03:05:23;;;;;;;1.08;0.90;;;22.20;99.90;;;;;;5092123;28;20047;-67
2021/09/16 03:07:49;;;;;;;2.60;1.20;;;22.20;99.90;;;;;;5107862;28;20038;-67
2021/09/16 03:10:14;;;;;;;2.35;0.80;;;22.20;99.90;;;;;;5113503;28;20057;-67
2021/09/16 03:12:41;;;;;;;1.88;0.98;;;22.20;99.90;;;;;;5106580;28;20028;-66
2021/09/16 03:15:07;;;;;;;2.28;0.90;;;22.20;99.90;;;;;;5092752;28;20028;-67
2021/09/16 03:17:33;;;;;;;1.33;1.05;;;22.20;99.90;;;;;;5100066;28;20030;-66
2021/09/16 03:19:59;;;;;;;2.67;1.00;;;22.20;99.90;;;;;;5112922;28;20035;-67
2021/09/16 03:22:24;;;;;;;2.03;0.90;;;22.20;99.90;;;;;;5112447;28;20015;-66
2021/09/16 03:24:50;;;;;;;1.48;0.90;;;22.20;99.90;;;;;;5112201;28;20475;-66
2021/09/16 03:27:16;;;;;;;1.75;0.93;;;22.20;99.90;;;;;;5112353;28;20471;-66
2021/09/16 03:29:41;;;;;;;1.52;0.82;;;22.20;99.90;;;;;;5112295;28;20093;-66
2021/09/16 03:32:07;;;;;;;1.58;0.90;;;22.20;99.90;;;;;;5109028;28;20426;-66
2021/09/16 03:34:33;;;;;;;1.85;1.00;;;22.20;99.90;;;;;;5092288;28;20036;-65
2021/09/16 03:36:59;;;;;;;1.40;0.88;;;22.10;99.90;;;;;;5092798;28;20072;-66
2021/09/16 03:39:24;;;;;;;1.90;1.10;;;22.10;99.90;;;;;;5092300;28;20115;-65
2021/09/16 03:41:50;;;;;;;1.55;1.02;;;22.20;99.90;;;;;;5074003;28;20106;-67
2021/09/16 03:44:16;;;;;;;2.40;1.08;;;22.10;99.90;;;;;;5074043;28;20462;-67
2021/09/16 03:46:41;;;;;;;1.75;0.90;;;22.10;99.90;;;;;;5092236;28;20472;-66
2021/09/16 03:49:07;;;;;;;1.58;1.00;;;22.10;99.90;;;;;;5100230;28;20068;-67
2021/09/16 03:51:33;;;;;;;1.80;1.17;;;22.10;99.90;;;;;;5112400;28;20031;-65
2021/09/16 03:53:58;;;;;;;1.50;1.00;;;22.10;99.90;;;;;;5112761;28;20277;-67
2021/09/16 03:56:24;;;;;;;0.70;0.65;;;22.10;99.90;;;;;;5110694;28;20050;-67
2021/09/16 03:58:50;;;;;;;1.48;1.08;;;22.10;99.90;;;;;;5112203;28;20101;-67
2021/09/16 04:01:15;;;;;;;2.00;0.90;;;22.10;99.90;;;;;;5094339;28;20462;-67
2021/09/16 04:03:41;;;;;;;1.73;0.98;;;22.10;99.90;;;;;;5112137;28;20543;-66
2021/09/16 04:06:07;;;;;;;3.17;1.00;;;22.10;99.90;;;;;;5112507;28;20077;-66
2021/09/16 04:08:32;;;;;;;2.83;1.77;;;22.10;99.90;;;;;;5112520;28;20379;-67
2021/09/16 04:10:58;;;;;;;2.63;1.00;;;22.10;99.90;;;;;;5112549;28;20020;-66
2021/09/16 04:13:23;;;;;;;1.88;0.93;;;22.10;99.90;;;;;;5112144;28;20036;-67
2021/09/16 04:15:49;;;;;;;2.17;1.00;;;22.10;99.90;;;;;;5110521;28;20031;-66
2021/09/16 04:18:15;;;;;;;1.90;1.00;;;22.10;99.90;;;;;;5110353;28;20023;-68
2021/09/16 04:20:40;;;;;;;1.27;0.90;;;22.00;99.90;;;;;;5111822;28;20036;-67
2021/09/16 04:23:06;;;;;;;1.20;0.88;;;22.10;99.90;;;;;;5111667;28;20081;-67
2021/09/16 04:25:31;;;;;;;2.00;0.90;;;22.00;99.90;;;;;;5112383;28;20417;-67
2021/09/16 04:27:57;;;;;;;1.20;0.95;;;22.00;99.90;;;;;;5111325;28;20024;-67
2021/09/16 04:30:23;;;;;;;1.33;1.00;;;22.10;99.90;;;;;;5101531;28;20129;-67
2021/09/16 04:32:48;;;;;;;3.22;1.20;;;22.10;99.90;;;;;;5107406;28;20384;-67
2021/09/16 04:35:14;;;;;;;1.60;0.88;;;22.00;99.90;;;;;;5099975;28;20028;-67
2021/09/16 04:37:40;;;;;;;1.90;1.15;;;22.00;99.90;;;;;;5103797;28;20059;-67
2021/09/16 04:40:06;;;;;;;2.00;1.00;;;22.00;99.90;;;;;;5110002;28;20036;-66
2021/09/16 04:42:32;;;;;;;4.57;1.13;;;22.00;99.90;;;;;;5111810;28;20028;-67
2021/09/16 04:44:58;;;;;;;3.00;1.10;;;22.00;99.90;;;;;;5099301;28;20077;-67
2021/09/16 04:47:23;;;;;;;2.20;0.93;;;22.00;99.90;;;;;;5073242;28;20105;-67
2021/09/16 04:49:49;;;;;;;1.20;0.90;;;22.00;99.90;;;;;;5091216;28;20032;-65
2021/09/16 04:52:15;;;;;;;4.60;1.25;;;22.00;99.90;;;;;;5102741;28;20104;-66
2021/09/16 04:54:41;;;;;;;2.42;1.10;;;22.00;99.90;;;;;;5093189;28;20050;-66
2021/09/16 04:57:07;;;;;;;2.13;1.13;;;21.90;99.90;;;;;;5111199;28;20059;-66
2021/09/16 04:59:33;;;;;;;1.85;0.98;;;21.90;99.90;;;;;;5104842;28;20125;-64
2021/09/16 05:01:58;;;;;;;1.27;1.02;;;22.00;99.90;;;;;;5101219;28;20230;-67
2021/09/16 05:04:24;;;;;;;1.85;1.10;;;22.00;99.90;;;;;;5110334;28;20059;-66
2021/09/16 05:06:50;;;;;;;5.80;1.20;;;21.90;99.90;;;;;;5091147;28;20024;-67
2021/09/16 05:09:15;;;;;;;2.15;1.17;;;21.90;99.90;;;;;;5073014;28;20024;-66
2021/09/16 05:11:42;;;;;;;1.40;0.90;;;21.90;99.90;;;;;;5090888;28;20050;-68
2021/09/16 05:14:08;;;;;;;2.03;1.13;;;21.90;99.90;;;;;;5091341;28;20077;-66
2021/09/16 05:16:35;;;;;;;2.30;1.27;;;21.90;99.90;;;;;;5099376;28;20028;-65
2021/09/16 05:19:01;;;;;;;2.80;1.35;;;21.90;99.90;;;;;;5097592;28;20039;-66
2021/09/16 05:21:27;;;;;;;3.72;1.40;;;21.90;99.90;;;;;;5090904;28;20115;-66
2021/09/16 05:23:53;;;;;;;2.83;1.13;;;21.90;99.90;;;;;;5090668;28;20119;-68
2021/09/16 05:26:18;;;;;;;2.47;0.80;;;21.90;99.90;;;;;;5101082;28;20032;-68
2021/09/16 05:28:44;;;;;;;3.30;0.90;;;21.90;99.90;;;;;;5098796;28;20016;-68
2021/09/16 05:31:10;;;;;;;7.78;1.30;;;21.90;99.90;;;;;;5102702;28;20035;-68
2021/09/16 05:33:36;;;;;;;4.43;1.10;;;21.80;99.90;;;;;;5105864;28;20511;-68
2021/09/16 05:36:02;;;;;;;6.28;2.60;;;21.80;99.90;;;;;;5103132;28;20032;-67
2021/09/16 05:38:28;;;;;;;7.25;3.88;;;21.80;99.90;;;;;;5094944;28;20456;-67
2021/09/16 05:40:54;;;;;;;7.10;4.32;;;21.80;99.90;;;;;;5096915;28;20039;-67
2021/09/16 05:43:20;;;;;;;6.45;4.35;;;21.80;99.90;;;;;;5101522;28;20025;-67
2021/09/16 05:45:46;;;;;;;8.73;4.82;;;21.70;99.90;;;;;;5094763;28;20035;-67
2021/09/16 05:48:12;;;;;;;9.95;5.13;;;21.70;99.90;;;;;;5109414;28;20033;-67
2021/09/16 05:50:38;;;;;;;11.55;5.32;;;21.60;99.90;;;;;;5114044;28;20036;-67
2021/09/16 05:53:04;;;;;;;10.88;5.07;;;21.60;99.90;;;;;;5115079;28;20035;-66
2021/09/16 05:55:30;;;;;;;14.23;5.03;;;21.60;99.90;;;;;;5113309;28;20076;-61
2021/09/16 05:57:56;;;;;;;9.27;4.90;;;21.50;99.90;;;;;;5094170;28;20016;-63
2021/09/16 06:00:23;;;;;;;9.82;5.35;;;21.40;99.90;;;;;;5094204;28;20042;-63
2021/09/16 06:02:50;;;;;;;7.10;5.05;;;21.40;99.90;;;;;;5096422;28;20023;-63
2021/09/16 06:05:15;;;;;;;10.23;5.47;;;21.30;99.90;;;;;;5095148;28;20111;-63
2021/09/16 06:07:41;;;;;;;9.98;6.05;;;21.20;99.90;;;;;;5093922;28;20067;-63
2021/09/16 06:10:07;;;;;;;14.10;5.80;;;21.10;99.90;;;;;;5105766;28;20520;-63
2021/09/16 06:12:33;;;;;;;12.13;6.05;;;21.10;99.90;;;;;;5112352;28;20134;-63
2021/09/16 06:14:59;;;;;;;13.55;6.85;;;21.00;99.90;;;;;;5114776;28;20111;-63
2021/09/16 06:17:25;;;;;;;10.07;7.00;;;21.00;99.90;;;;;;5094406;28;20046;-63
2021/09/16 06:19:50;;;;;;;12.32;7.63;;;20.90;99.90;;;;;;5093766;28;20028;-63
2021/09/16 06:22:17;;;;;;;18.13;8.43;;;20.80;99.90;;;;;;5094020;28;20487;-63
2021/09/16 06:24:43;;;;;;;16.77;7.88;;;20.80;99.90;;;;;;5092943;28;20091;-63
2021/09/16 06:27:08;;;;;;;14.23;8.30;;;20.70;99.90;;;;;;5106142;28;20028;-63
2021/09/16 06:29:34;;;;;;;13.80;7.88;;;20.70;99.90;;;;;;5093551;28;20024;-63
2021/09/16 06:32:00;;;;;;;16.25;9.55;;;20.60;99.90;;;;;;5094894;28;20028;-63
2021/09/16 06:34:25;;;;;;;13.05;8.77;;;20.50;99.90;;;;;;5105341;28;20016;-63
2021/09/16 06:36:52;;;;;;;13.50;9.25;;;20.40;99.90;;;;;;5093357;28;20022;-63
2021/09/16 06:39:18;;;;;;;15.80;9.75;;;20.40;99.90;;;;;;5092859;28;20368;-63
2021/09/16 06:41:44;;;;;;;17.27;10.73;;;20.40;99.90;;;;;;5095557;28;20476;-64
2021/09/16 06:44:10;;;;;;;20.45;10.43;;;20.30;99.90;;;;;;5093509;28;20026;-67
2021/09/16 06:46:35;;;;;;;17.33;10.10;;;20.30;99.90;;;;;;5093076;28;20020;-66
2021/09/16 06:49:01;;;;;;;21.17;11.02;;;20.20;99.90;;;;;;5093532;28;20016;-66
2021/09/16 06:51:27;;;;;;;23.98;9.43;;;20.20;99.90;;;;;;5091410;28;20031;-69
2021/09/16 06:53:54;;;;;;;14.43;8.77;;;20.10;99.90;;;;;;5092885;28;20389;-66
2021/09/16 06:56:19;;;;;;;16.38;8.32;;;20.10;99.90;;;;;;5078845;28;20545;-68
2021/09/16 06:58:45;;;;;;;14.40;7.93;;;20.20;99.90;;;;;;5079813;28;20032;-68
2021/09/16 07:01:12;;;;;;;14.45;7.70;;;20.10;99.90;;;;;;5092709;28;20048;-67
2021/09/16 07:03:37;;;;;;;13.75;6.60;;;20.00;99.90;;;;;;5092787;28;20032;-65
2021/09/16 07:06:03;;;;;;;11.68;6.90;;;20.00;99.90;;;;;;5091341;28;20069;-67
2021/09/16 07:08:29;;;;;;;11.20;6.18;;;20.00;99.90;;;;;;5092732;28;20032;-67
2021/09/16 07:10:54;;;;;;;11.82;6.00;;;20.00;99.90;;;;;;5092767;28;20034;-67
2021/09/16 07:13:20;;;;;;;10.73;6.10;;;19.90;99.90;;;;;;5092962;28;20096;-67
2021/09/16 07:15:46;;;;;;;15.45;5.85;;;19.90;99.90;;;;;;5092760;28;20036;-67
2021/09/16 07:18:11;;;;;;;9.35;5.28;;;19.90;99.90;;;;;;5092798;28;20023;-67
2021/09/16 07:20:37;;;;;;;8.65;4.90;;;19.90;99.90;;;;;;5091545;28;20043;-67
2021/09/16 07:23:03;;;;;;;9.18;5.40;;;19.90;99.90;;;;;;5092149;28;20042;-66
2021/09/16 07:25:29;;;;;;;9.02;5.43;;;19.90;99.90;;;;;;5093102;28;20055;-67
2021/09/16 07:27:55;;;;;;;10.00;5.22;;;19.90;99.90;;;;;;5092481;28;20364;-67
2021/09/16 07:30:22;;;;;;;8.60;5.20;;;19.90;99.90;;;;;;5092547;28;20153;-67
2021/09/16 07:32:47;;;;;;;8.88;4.93;;;19.90;99.90;;;;;;5092693;28;20039;-67
2021/09/16 07:35:13;;;;;;;8.70;5.10;;;19.90;99.90;;;;;;5092691;28;20028;-67
2021/09/16 07:37:39;;;;;;;8.95;5.03;;;19.90;99.90;;;;;;5092296;28;20027;-67
2021/09/16 07:40:05;;;;;;;8.32;4.78;;;19.90;99.90;;;;;;5092410;28;20090;-68
2021/09/16 07:42:31;;;;;;;8.75;4.82;;;19.90;99.90;;;;;;5092713;28;20480;-68
2021/09/16 07:44:56;;;;;;;8.60;4.72;;;19.90;99.90;;;;;;5092327;28;20043;-67
2021/09/16 07:47:22;;;;;;;9.65;4.82;;;19.90;99.90;;;;;;5092312;28;20024;-67
2021/09/16 07:49:48;;;;;;;8.30;4.65;;;19.90;99.90;;;;;;5091630;28;20178;-68
2021/09/16 07:52:14;;;;;;;8.43;5.10;;;19.90;99.90;;;;;;5107779;28;20039;-67
2021/09/16 07:54:40;;;;;;;7.97;4.38;;;19.90;99.90;;;;;;5092154;28;20020;-67
2021/09/16 07:57:06;;;;;;;7.28;5.05;;;19.90;99.90;;;;;;5092171;28;20073;-67
2021/09/16 07:59:32;;;;;;;8.65;5.05;;;19.90;99.90;;;;;;5092422;28;20032;-65
2021/09/16 08:01:57;;;;;;;8.13;4.75;;;19.90;99.90;;;;;;5092353;28;20028;-67
2021/09/16 08:04:23;;;;;;;8.13;4.40;;;19.90;99.90;;;;;;5091998;28;20024;-68
2021/09/16 08:06:49;;;;;;;7.72;4.57;;;19.90;99.90;;;;;;5091847;28;20509;-68
2021/09/16 08:09:15;;;;;;;8.80;4.32;;;19.90;99.90;;;;;;5091992;28;20012;-68
2021/09/16 08:11:41;;;;;;;8.40;4.82;;;19.90;99.90;;;;;;5091689;28;20577;-68
2021/09/16 08:14:07;;;;;;;8.20;4.93;;;19.90;99.90;;;;;;5073928;28;20020;-68
2021/09/16 08:16:34;;;;;;;8.30;4.97;;;19.90;99.90;;;;;;5091745;28;20031;-65
2021/09/16 08:19:00;;;;;;;9.00;4.63;;;19.90;99.90;;;;;;5092101;28;20039;-67
2021/09/16 08:21:27;;;;;;;9.50;5.13;;;19.90;99.90;;;;;;5091712;28;20387;-67
2021/09/16 08:23:53;;;;;;;10.00;5.03;;;19.90;99.90;;;;;;5091571;28;20020;-66
2021/09/16 08:26:18;;;;;;;8.35;5.20;;;20.00;99.90;;;;;;5091745;28;20021;-68
2021/09/16 08:28:44;;;;;;;9.45;5.20;;;19.90;99.90;;;;;;5091645;28;20024;-67
2021/09/16 08:31:10;;;;;;;9.18;5.25;;;20.00;99.90;;;;;;5091614;28;20024;-68
2021/09/16 08:33:36;;;;;;;9.27;5.55;;;19.90;99.90;;;;;;5091263;28;20031;-67
2021/09/16 08:36:02;;;;;;;9.50;5.82;;;20.00;99.90;;;;;;5091943;28;20430;-67
2021/09/16 08:38:28;;;;;;;8.45;5.30;;;20.00;99.90;;;;;;5092015;28;20054;-67
2021/09/16 08:40:54;;;;;;;9.80;5.53;;;20.00;99.90;;;;;;5091137;28;20032;-67
2021/09/16 08:43:26;;;;;;;9.50;6.00;;;20.00;99.90;;;;;;5091571;28;20054;-68
2021/09/16 08:45:52;;;;;;;7.47;5.03;;;20.00;99.90;;;;;;5091186;28;20028;-69
2021/09/16 08:48:18;;;;;;;8.90;5.35;;;20.00;99.90;;;;;;5091557;28;20468;-68
2021/09/16 08:50:44;;;;;;;8.55;5.80;;;20.00;99.90;;;;;;5091195;28;20102;-68
2021/09/16 08:53:16;;;;;;;7.55;4.82;;;20.00;99.90;;;;;;5091500;28;20016;-65
2021/09/16 08:55:42;;;;;;;8.57;5.57;;;20.00;99.90;;;;;;5091195;28;20028;-65
2021/09/16 08:58:09;;;;;;;9.18;5.32;;;20.00;99.90;;;;;;5091282;28;20173;-68
2021/09/16 09:00:35;;;;;;;8.70;5.38;;;20.00;99.90;;;;;;5091271;28;20403;-69
2021/09/16 09:03:01;;;;;;;8.82;6.00;;;20.10;99.90;;;;;;5094259;28;20024;-68
2021/09/16 09:05:29;;;;;;;9.60;5.20;;;20.10;99.90;;;;;;5095364;28;20020;-67
2021/09/16 09:07:56;;;;;;;10.63;5.63;;;20.10;99.90;;;;;;5095075;28;20028;-69
2021/09/16 09:10:42;;;;;;;8.43;4.90;;;20.10;99.90;;;;;;5095432;28;20030;-69
2021/09/16 09:13:14;;;;;;;8.07;4.90;;;20.10;99.90;;;;;;5095384;28;20028;-68
2021/09/16 09:15:42;;;;;;;7.05;5.40;;;20.10;99.90;;;;;;5095050;28;20036;-68
2021/09/16 09:18:09;;;;;;;7.50;4.70;;;20.10;99.90;;;;;;5095009;28;20020;-69
2021/09/16 09:21:11;;;;;;;9.68;5.68;;;20.10;99.90;;;;;;5094919;28;20395;-67
2021/09/16 09:23:56;;;;;;;8.18;5.10;;;20.20;99.90;;;;;;5094274;28;20039;-65
2021/09/16 09:26:41;;;;;;;8.85;5.13;;;20.10;99.90;;;;;;5095048;28;20499;-67
2021/09/16 09:29:06;;;;;;;7.03;4.65;;;20.10;99.90;;;;;;5095067;28;20417;-69
2021/09/16 09:31:34;;;;;;;9.63;5.13;;;20.20;99.90;;;;;;5095295;28;20034;-69
2021/09/16 09:34:00;;;;;;;9.23;4.65;;;20.20;99.90;;;;;;5095221;28;20433;-70
2021/09/16 09:36:25;;;;;;;7.68;4.75;;;20.20;99.90;;;;;;5094821;28;20035;-69
2021/09/16 09:39:00;;;;;;;6.80;4.65;;;20.20;99.90;;;;;;5094543;28;20028;-69
2021/09/16 09:41:35;;;;;;;6.35;4.40;;;20.20;99.90;;;;;;5094653;28;20044;-66
2021/09/16 09:44:11;;;;;;;7.63;4.97;;;20.20;99.90;;;;;;5094904;28;20020;-68
2021/09/16 09:46:49;;;;;;;6.25;4.57;;;20.20;99.90;;;;;;5094570;28;20028;-66
2021/09/16 09:49:24;;;;;;;6.95;4.88;;;20.20;99.90;;;;;;5094684;28;20020;-69
2021/09/16 09:51:53;;;;;;;6.55;4.57;;;20.20;99.90;;;;;;5094399;28;20046;-68
2021/09/16 09:54:32;;;;;;;6.40;4.50;;;20.20;99.90;;;;;;5094572;28;20035;-68
2021/09/16 09:57:12;;;;;;;7.38;4.57;;;20.20;99.90;;;;;;5094841;28;20028;-68
2021/09/16 09:59:56;;;;;;;7.85;4.22;;;20.30;99.90;;;;;;5094157;28;20038;-69
2021/09/16 10:02:28;;;;;;;7.82;4.60;;;20.30;99.90;;;;;;5094479;28;20027;-69
2021/09/16 10:04:55;;;;;;;6.63;4.28;;;20.30;99.90;;;;;;5109945;28;20042;-69
2021/09/16 10:07:35;;;;;;;5.90;3.60;;;20.30;99.90;;;;;;5109908;28;20353;-70
2021/09/16 10:10:07;;;;;;;5.65;3.95;;;20.30;99.90;;;;;;5077654;28;20086;-70
2021/09/16 10:12:33;;;;;;;6.32;4.10;;;20.30;99.90;;;;;;5093758;28;20044;-66
2021/09/16 10:14:59;;;;;;;7.10;3.97;;;20.40;99.90;;;;;;5094378;28;20673;-68
2021/09/16 10:17:25;;;;;;;5.30;3.92;;;20.30;99.90;;;;;;5093996;28;20028;-68
2021/09/16 10:19:52;;;;;;;6.13;3.95;;;20.30;99.90;;;;;;5093537;28;20028;-69
2021/09/16 10:22:18;;;;;;;5.55;3.65;;;20.40;99.90;;;;;;5093963;28;20435;-68
2021/09/16 10:24:46;;;;;;;6.13;3.55;;;20.40;99.90;;;;;;5093776;28;20024;-67
2021/09/16 10:27:42;;;;;;;6.47;3.92;;;20.40;99.90;;;;;;5093949;28;20035;-70
2021/09/16 10:30:23;;;;;;;4.80;3.33;;;20.40;99.90;;;;;;5081244;28;20399;-69
2021/09/16 10:33:17;;;;;;;6.20;3.20;;;20.40;99.90;;;;;;5093602;28;20047;-69
2021/09/16 10:36:04;;;;;;;4.50;3.30;;;20.50;99.90;;;;;;5075475;28;20119;-70
2021/09/16 10:38:40;;;;;;;4.57;3.60;;;20.40;99.90;;;;;;5094059;28;20383;-71
2021/09/16 10:41:44;;;;;;;6.35;3.15;;;20.50;99.90;;;;;;5093720;28;20426;-69
2021/09/16 10:44:10;;;;;;;6.43;3.15;;;20.50;99.90;;;;;;5080296;28;20036;-71
2021/09/16 10:46:38;;;;;;;4.05;3.08;;;20.50;99.90;;;;;;5093205;28;20034;-69
2021/09/16 10:49:36;;;;;;;4.70;2.95;;;20.50;99.90;;;;;;5093439;28;20024;-69
2021/09/16 10:52:10;;;;;;;5.25;2.95;;;20.50;99.90;;;;;;5059647;28;20044;-70
2021/09/16 10:54:57;;;;;;;4.85;2.83;;;20.50;99.90;;;;;;5093156;28;20020;-70
2021/09/16 10:57:29;;;;;;;4.82;3.20;;;20.50;99.90;;;;;;5093287;28;20034;-69
2021/09/16 10:59:54;;;;;;;3.58;2.75;;;20.50;99.90;;;;;;5093083;28;20048;-69
2021/09/16 11:02:25;;;;;;;3.95;2.92;;;20.60;99.90;;;;;;5093101;28;20432;-69
2021/09/16 11:04:57;;;;;;;3.65;2.72;;;20.60;99.90;;;;;;5092896;28;20031;-70
2021/09/16 11:07:38;;;;;;;4.22;2.92;;;20.60;99.90;;;;;;5092978;28;20404;-70
2021/09/16 11:10:15;;;;;;;3.90;2.72;;;20.60;99.90;;;;;;5093104;28;20024;-70
2021/09/16 11:13:09;;;;;;;3.40;2.70;;;20.60;99.90;;;;;;5092832;28;20106;-68
2021/09/16 11:15:38;;;;;;;4.30;2.60;;;20.60;99.90;;;;;;5092636;28;20028;-70
2021/09/16 11:18:09;;;;;;;3.20;2.35;;;20.70;99.90;;;;;;5092916;28;20035;-70
2021/09/16 11:20:35;;;;;;;3.78;2.58;;;20.70;99.90;;;;;;5092692;28;20040;-70
2021/09/16 11:23:01;;;;;;;3.20;2.45;;;20.70;99.90;;;;;;5093113;28;20105;-69
2021/09/16 11:25:38;;;;;;;3.35;2.50;;;20.70;99.90;;;;;;5092282;28;20395;-71
2021/09/16 11:28:04;;;;;;;3.67;2.30;;;20.70;99.90;;;;;;5092638;28;20027;-69
2021/09/16 11:30:30;;;;;;;3.63;2.80;;;20.70;99.90;;;;;;5092915;28;20028;-68
2021/09/16 11:33:02;;;;;;;3.60;2.38;;;20.70;99.90;;;;;;5092322;28;20414;-69
2021/09/16 11:35:28;;;;;;;3.08;2.22;;;20.70;99.90;;;;;;5093210;28;20417;-69
2021/09/16 11:37:54;;;;;;;3.00;2.58;;;20.80;99.90;;;;;;5092316;28;20190;-68
2021/09/16 11:40:25;;;;;;;3.33;2.58;;;20.80;99.90;;;;;;5092406;28;20541;-69
2021/09/16 11:42:56;;;;;;;3.38;2.53;;;20.80;99.90;;;;;;5092188;28;20020;-70
2021/09/16 11:45:26;;;;;;;3.47;2.33;;;20.80;99.90;;;;;;5092571;28;20085;-68
2021/09/16 11:47:57;;;;;;;3.90;2.58;;;20.80;99.90;;;;;;5092138;28;20023;-69
2021/09/16 11:50:32;;;;;;;2.90;2.45;;;20.80;99.90;;;;;;5092316;28;20119;-68
2021/09/16 11:53:07;;;;;;;3.38;2.25;;;20.80;99.90;;;;;;5092508;28;20016;-68
2021/09/16 11:55:36;;;;;;;2.72;2.10;;;20.90;99.90;;;;;;5091991;28;20024;-65
2021/09/16 11:58:06;;;;;;;3.35;2.33;;;20.90;99.90;;;;;;5092368;28;20027;-69
2021/09/16 12:00:35;;;;;;;3.28;2.40;;;20.90;99.90;;;;;;5092452;28;20129;-68
2021/09/16 12:03:04;;;;;;;3.03;2.10;;;20.90;99.90;;;;;;5092284;28;20020;-69
2021/09/16 12:05:45;;;;;;;3.20;2.28;;;20.90;99.90;;;;;;5092318;28;20043;-69
2021/09/16 12:08:28;;;;;;;2.65;2.10;;;20.90;99.90;;;;;;5091898;28;20020;-69
2021/09/16 12:10:56;;;;;;;2.67;2.00;;;21.00;99.90;;;;;;5091757;28;20503;-69
2021/09/16 12:13:28;;;;;;;2.92;2.20;;;21.00;99.90;;;;;;5092087;28;20439;-68
2021/09/16 12:16:07;;;;;;;2.58;2.08;;;21.00;99.90;;;;;;5091445;28;20089;-69
2021/09/16 12:18:37;;;;;;;2.80;1.90;;;21.00;99.90;;;;;;5091520;28;20031;-68
2021/09/16 12:21:11;;;;;;;2.85;1.70;;;21.00;99.90;;;;;;5091823;28;20032;-64
2021/09/16 12:23:37;;;;;;;;;;;21.00;99.90;;;;;;5092074;28;20502;-68
2021/09/16 12:26:08;;;;;;;2.92;2.05;;;21.00;99.90;;;;;;5091828;28;19904;-63
2021/09/16 12:28:57;;;;;;;3.33;2.30;;;21.10;99.90;;;;;;5091360;28;20353;-68
2021/09/16 12:31:29;;;;;;;2.83;2.38;;;21.10;99.90;;;;;;5091684;28;20062;-69
2021/09/16 12:34:19;;;;;;;3.92;2.00;;;21.10;99.90;;;;;;5091539;28;20102;-70
2021/09/16 12:37:00;;;;;;;2.85;2.08;;;21.10;99.90;;;;;;5090474;28;20039;-67
2021/09/16 12:39:28;;;;;;;3.00;2.25;;;21.10;99.90;;;;;;5091501;28;20102;-70
2021/09/16 12:41:55;;;;;;;3.33;2.50;;;21.20;99.90;;;;;;5091183;28;20028;-70
2021/09/16 12:44:25;;;;;;;2.30;2.10;;;21.20;99.90;;;;;;5091528;28;20383;-68
2021/09/16 12:46:55;;;;;;;2.40;2.20;;;21.20;99.90;;;;;;5091242;28;20078;-70
2021/09/16 12:49:34;;;;;;;3.45;2.35;;;21.20;99.90;;;;;;5091529;28;20081;-66